Time,TemperatureF,DewpointF,PressureIn,WindDirection,WindDirectionDegrees,WindSpeedMPH,WindSpeedGustMPH,Humidity,HourlyPrecipIn,Conditions,Clouds,dailyrainin,SoftwareType,DateUTC
2013-05-10 00:00:00,46.0,40.0,29.45,North,-999,-999.0,-999.0,80,-99.99,,,-99.99,,2013-05-09 23:00:00,
2013-05-10 00:42:00,46.0,40.0,29.45,North,-999,-999.0,-999.0,80,-99.99,,,-99.99,,2013-05-09 23:42:00,
2013-05-10 00:52:00,46.0,40.0,29.45,North,-999,-999.0,-999.0,80,-99.99,,,-99.99,,2013-05-09 23:52:00,
2013-05-10 01:00:00,43.0,39.0,29.46,North,-999,-999.0,-999.0,85,-99.99,,,-99.99,,2013-05-10 00:00:00,
2013-05-10 01:42:00,43.0,39.0,29.46,North,-999,-999.0,-999.0,85,-99.99,,,-99.99,,2013-05-10 00:42:00,
2013-05-10 01:51:00,43.0,39.0,29.46,North,-999,-999.0,-999.0,85,-99.99,,,-99.99,,2013-05-10 00:51:00,
2013-05-10 02:00:00,42.0,39.0,29.47,North,-999,-999.0,-999.0,90,-99.99,,,-99.99,,2013-05-10 01:00:00,
2013-05-10 02:41:00,42.0,39.0,29.47,North,-999,-999.0,-999.0,90,-99.99,,,-99.99,,2013-05-10 01:41:00,
2013-05-10 02:52:00,42.0,39.0,29.47,North,-999,-999.0,-999.0,90,-99.99,,,-99.99,,2013-05-10 01:52:00,
2013-05-10 03:00:00,42.0,39.0,29.48,North,-999,-999.0,-999.0,91,-99.99,,,-99.99,,2013-05-10 02:00:00,
2013-05-10 03:42:00,42.0,39.0,29.48,North,-999,-999.0,-999.0,91,-99.99,,,-99.99,,2013-05-10 02:42:00,
2013-05-10 03:52:00,42.0,39.0,29.48,North,-999,-999.0,-999.0,91,-99.99,,,-99.99,,2013-05-10 02:52:00,
2013-05-10 04:00:00,45.0,42.0,29.49,North,-999,-999.0,-999.0,87,-99.99,,,-99.99,,2013-05-10 03:00:00,
2013-05-10 04:42:00,45.0,42.0,29.49,North,-999,-999.0,-999.0,87,-99.99,,,-99.99,,2013-05-10 03:42:00,
2013-05-10 04:52:00,45.0,42.0,29.49,North,-999,-999.0,-999.0,87,-99.99,,,-99.99,,2013-05-10 03:52:00,
2013-05-10 05:00:00,45.0,42.0,29.49,North,-999,-999.0,-999.0,88,-99.99,,,-99.99,,2013-05-10 04:00:00,
2013-05-10 05:42:00,45.0,42.0,29.49,North,-999,-999.0,-999.0,88,-99.99,,,-99.99,,2013-05-10 04:42:00,
2013-05-10 05:52:00,45.0,42.0,29.49,North,-999,-999.0,-999.0,88,-99.99,,,-99.99,,2013-05-10 04:52:00,
2013-05-10 06:00:00,47.0,41.0,29.49,North,-999,-999.0,-999.0,81,-99.99,,,-99.99,,2013-05-10 05:00:00,
2013-05-10 06:42:00,47.0,41.0,29.49,North,-999,-999.0,-999.0,81,-99.99,,,-99.99,,2013-05-10 05:42:00,
2013-05-10 06:52:00,47.0,41.0,29.49,North,-999,-999.0,-999.0,81,-99.99,,,-99.99,,2013-05-10 05:52:00,
2013-05-10 07:00:00,44.0,41.0,29.51,North,-999,-999.0,-999.0,90,-99.99,,,-99.99,,2013-05-10 06:00:00,
2013-05-10 07:41:00,44.0,41.0,29.51,North,-999,-999.0,-999.0,90,-99.99,,,-99.99,,2013-05-10 06:41:00,
2013-05-10 07:51:00,44.0,41.0,29.51,North,-999,-999.0,-999.0,90,-99.99,,,-99.99,,2013-05-10 06:51:00,
2013-05-10 08:00:00,46.0,44.0,29.50,North,-999,-999.0,-999.0,91,-99.99,,,-99.99,,2013-05-10 07:00:00,
2013-05-10 08:41:00,46.0,44.0,29.50,North,-999,-999.0,-999.0,91,-99.99,,,-99.99,,2013-05-10 07:41:00,
2013-05-10 08:52:00,46.0,44.0,29.50,North,-999,-999.0,-999.0,91,-99.99,,,-99.99,,2013-05-10 07:52:00,
2013-05-10 09:00:00,47.0,45.0,29.49,North,-999,-999.0,-999.0,93,-99.99,,,-99.99,,2013-05-10 08:00:00,
2013-05-10 09:41:00,47.0,45.0,29.49,North,-999,-999.0,-999.0,93,-99.99,,,-99.99,,2013-05-10 08:41:00,
2013-05-10 09:51:00,47.0,45.0,29.49,North,-999,-999.0,-999.0,93,-99.99,,,-99.99,,2013-05-10 08:51:00,
2013-05-10 10:00:00,46.0,45.0,29.53,North,-999,-999.0,-999.0,95,-99.99,,,-99.99,,2013-05-10 09:00:00,
2013-05-10 10:32:00,46.0,45.0,29.53,North,-999,-999.0,-999.0,95,-99.99,,,-99.99,,2013-05-10 09:32:00,
2013-05-10 10:42:00,46.0,45.0,29.53,North,-999,-999.0,-999.0,95,-99.99,,,-99.99,,2013-05-10 09:42:00,
2013-05-10 10:52:00,46.0,45.0,29.53,North,-999,-999.0,-999.0,95,-99.99,,,-99.99,,2013-05-10 09:52:00,
2013-05-10 11:00:00,47.0,45.0,29.52,North,-999,-999.0,-999.0,92,-99.99,,,-99.99,,2013-05-10 10:00:00,
2013-05-10 11:41:00,47.0,45.0,29.52,North,-999,-999.0,-999.0,92,-99.99,,,-99.99,,2013-05-10 10:41:00,
2013-05-10 11:52:00,47.0,45.0,29.52,North,-999,-999.0,-999.0,92,-99.99,,,-99.99,,2013-05-10 10:52:00,
2013-05-10 12:00:00,48.0,43.0,29.54,North,-999,-999.0,-999.0,82,-99.99,,,-99.99,,2013-05-10 11:00:00,
2013-05-10 12:42:00,48.0,43.0,29.54,North,-999,-999.0,-999.0,82,-99.99,,,-99.99,,2013-05-10 11:42:00,
2013-05-10 12:51:00,48.0,43.0,29.54,North,-999,-999.0,-999.0,82,-99.99,,,-99.99,,2013-05-10 11:51:00,
2013-05-10 13:00:00,46.0,45.0,29.56,North,-999,-999.0,-999.0,93,-99.99,,,-99.99,,2013-05-10 12:00:00,
2013-05-10 13:41:00,46.0,45.0,29.56,North,-999,-999.0,-999.0,93,-99.99,,,-99.99,,2013-05-10 12:41:00,
2013-05-10 13:51:00,46.0,45.0,29.56,North,-999,-999.0,-999.0,93,-99.99,,,-99.99,,2013-05-10 12:51:00,
2013-05-10 14:00:00,47.0,43.0,29.55,North,-999,-999.0,-999.0,86,-99.99,,,-99.99,,2013-05-10 13:00:00,
2013-05-10 14:41:00,47.0,43.0,29.55,North,-999,-999.0,-999.0,86,-99.99,,,-99.99,,2013-05-10 13:41:00,
2013-05-10 14:52:00,47.0,43.0,29.55,North,-999,-999.0,-999.0,86,-99.99,,,-99.99,,2013-05-10 13:52:00,
2013-05-10 15:00:00,49.0,47.0,29.53,North,-999,-999.0,-999.0,92,-99.99,,,-99.99,,2013-05-10 14:00:00,
2013-05-10 15:41:00,49.0,47.0,29.53,North,-999,-999.0,-999.0,92,-99.99,,,-99.99,,2013-05-10 14:41:00,
2013-05-10 15:51:00,49.0,47.0,29.53,North,-999,-999.0,-999.0,92,-99.99,,,-99.99,,2013-05-10 14:51:00,
2013-05-10 18:32:00,47.0,47.0,29.45,North,-999,-999.0,-999.0,97,-99.99,,,-99.99,,2013-05-10 17:32:00,
2013-05-10 18:42:00,47.0,47.0,29.45,North,-999,-999.0,-999.0,97,-99.99,,,-99.99,,2013-05-10 17:42:00,
2013-05-10 18:51:00,47.0,47.0,29.45,North,-999,-999.0,-999.0,97,-99.99,,,-99.99,,2013-05-10 17:51:00,
2013-05-10 19:00:00,48.0,47.0,29.48,North,-999,-999.0,-999.0,96,-99.99,,,-99.99,,2013-05-10 18:00:00,
2013-05-10 19:43:00,48.0,47.0,29.48,North,-999,-999.0,-999.0,96,-99.99,,,-99.99,,2013-05-10 18:43:00,
2013-05-10 19:54:00,48.0,47.0,29.48,North,-999,-999.0,-999.0,96,-99.99,,,-99.99,,2013-05-10 18:54:00,
2013-05-10 20:00:00,47.0,46.0,29.48,North,-999,-999.0,-999.0,96,-99.99,,,-99.99,,2013-05-10 19:00:00,
2013-05-10 20:41:00,47.0,46.0,29.48,North,-999,-999.0,-999.0,96,-99.99,,,-99.99,,2013-05-10 19:41:00,
2013-05-10 20:52:00,47.0,46.0,29.48,North,-999,-999.0,-999.0,96,-99.99,,,-99.99,,2013-05-10 19:52:00,
2013-05-10 21:00:00,46.0,45.0,29.50,North,-999,-999.0,-999.0,95,-99.99,,,-99.99,,2013-05-10 20:00:00,
2013-05-10 21:41:00,46.0,45.0,29.50,North,-999,-999.0,-999.0,95,-99.99,,,-99.99,,2013-05-10 20:41:00,
2013-05-10 21:52:00,46.0,45.0,29.50,North,-999,-999.0,-999.0,95,-99.99,,,-99.99,,2013-05-10 20:52:00,
2013-05-10 22:00:00,45.0,44.0,29.54,North,-999,-999.0,-999.0,94,-99.99,,,-99.99,,2013-05-10 21:00:00,
2013-05-10 22:42:00,45.0,44.0,29.54,North,-999,-999.0,-999.0,94,-99.99,,,-99.99,,2013-05-10 21:42:00,
2013-05-10 22:52:00,45.0,44.0,29.54,North,-999,-999.0,-999.0,94,-99.99,,,-99.99,,2013-05-10 21:52:00,
2013-05-10 23:00:00,46.0,41.0,29.58,North,-999,-999.0,-999.0,80,-99.99,,,-99.99,,2013-05-10 22:00:00,
2013-05-10 23:41:00,46.0,41.0,29.58,North,-999,-999.0,-999.0,80,-99.99,,,-99.99,,2013-05-10 22:41:00,
2013-05-10 23:52:00,46.0,41.0,29.58,North,-999,-999.0,-999.0,80,-99.99,,,-99.99,,2013-05-10 22:52:00,